createdAt,value
2022-08-17T00:00:00.326Z,7.18
2022-08-17T00:04:56.695Z,6.60
2022-08-17T00:09:53.109Z,6.97
2022-08-17T00:14:49.953Z,7.70
2022-08-17T00:19:46.601Z,6.93
2022-08-17T00:24:42.954Z,6.95
2022-08-17T00:29:39.328Z,6.85
2022-08-17T00:34:35.658Z,7.10
2022-08-17T00:39:32.055Z,6.90
2022-08-17T00:44:31.241Z,7.50
2022-08-17T00:49:27.766Z,6.85
2022-08-17T00:54:29.770Z,6.57
2022-08-17T00:59:33.026Z,5.97
2022-08-17T01:04:31.381Z,6.32
2022-08-17T01:09:27.921Z,6.95
2022-08-17T01:14:26.101Z,6.47
2022-08-17T01:19:26.632Z,6.40
2022-08-17T01:24:23.374Z,6.97
2022-08-17T01:29:21.617Z,5.93
2022-08-17T01:34:18.906Z,5.95
2022-08-17T01:39:34.138Z,6.90
2022-08-17T01:44:30.637Z,6.90
2022-08-17T01:49:27.033Z,7.43
2022-08-17T01:54:25.244Z,7.35
2022-08-17T01:59:21.766Z,7.35
2022-08-17T02:04:18.326Z,8.07
2022-08-17T02:09:16.784Z,8.45
2022-08-17T02:14:14.211Z,7.32
2022-08-17T02:19:15.537Z,7.60
2022-08-17T02:24:17.271Z,7.30
2022-08-17T02:29:15.129Z,7.60
2022-08-17T02:39:10.477Z,8.40
2022-08-17T02:44:07.204Z,7.55
2022-08-17T02:49:04.956Z,7.18
2022-08-17T02:59:17.522Z,6.95
2022-08-17T03:04:14.012Z,7.60
2022-08-17T03:09:10.339Z,7.18
2022-08-17T03:14:06.675Z,7.55
2022-08-17T03:19:03.064Z,7.13
2022-08-17T03:23:59.653Z,7.20
2022-08-17T03:28:55.970Z,7.35
2022-08-17T03:33:52.509Z,7.72
2022-08-17T03:38:48.838Z,7.75
2022-08-17T03:43:47.426Z,7.05
2022-08-17T03:49:02.362Z,8.23
2022-08-17T03:54:18.350Z,7.32
2022-08-17T03:59:21.171Z,8.52
2022-08-17T04:04:20.150Z,6.80
2022-08-17T04:09:24.050Z,7.57
2022-08-17T04:14:20.739Z,7.00
2022-08-17T04:19:17.170Z,7.05
2022-08-17T04:24:13.573Z,6.72
2022-08-17T04:29:10.012Z,6.55
2022-08-17T04:34:06.637Z,7.43
2022-08-17T04:39:03.698Z,7.55
2022-08-17T04:44:01.244Z,6.80
2022-08-17T04:48:57.903Z,7.10
2022-08-17T04:53:57.287Z,8.40
2022-08-17T04:58:57.624Z,8.07
2022-08-17T05:03:56.801Z,6.80
2022-08-17T05:08:54.163Z,7.05
2022-08-17T05:13:50.638Z,8.15
2022-08-17T05:18:47.612Z,6.90
2022-08-17T05:23:45.055Z,7.53
2022-08-17T05:28:47.938Z,6.97
2022-08-17T05:33:46.243Z,8.02
2022-08-17T05:38:42.887Z,7.05
2022-08-17T05:43:41.938Z,8.45
2022-08-17T05:48:41.406Z,8.73
2022-08-17T05:54:00.538Z,7.30
2022-08-17T05:59:23.820Z,7.25
2022-08-17T06:05:00.702Z,8.35
2022-08-17T06:10:02.998Z,8.85
2022-08-17T06:15:19.524Z,7.45
2022-08-17T06:20:16.254Z,6.77
2022-08-17T06:25:14.768Z,7.33
2022-08-17T06:30:20.211Z,6.78
2022-08-17T06:35:28.888Z,6.38
2022-08-17T06:40:39.833Z,6.50
2022-08-17T06:45:49.017Z,7.15
2022-08-17T06:50:53.609Z,5.90
2022-08-17T06:55:59.782Z,5.85
2022-08-17T07:00:59.097Z,5.50
2022-08-17T07:06:04.406Z,4.95
2022-08-17T07:11:06.891Z,5.63
2022-08-17T07:16:20.310Z,5.63
2022-08-17T07:21:26.760Z,4.15
2022-08-17T07:26:24.193Z,4.15
2022-08-17T07:31:20.924Z,2.70
2022-08-17T07:36:29.622Z,2.95
2022-08-17T07:41:27.648Z,4.07
2022-08-17T07:47:11.296Z,2.88
2022-08-17T07:52:50.692Z,3.45
2022-08-17T07:57:55.060Z,3.40
2022-08-17T08:03:03.624Z,2.72
2022-08-17T08:08:05.864Z,2.55
2022-08-17T08:13:20.608Z,2.75
2022-08-17T08:18:38.725Z,2.40
2022-08-17T08:23:57.368Z,2.60
2022-08-17T08:29:09.361Z,2.42
2022-08-17T08:34:55.867Z,2.40
2022-08-17T08:39:57.169Z,2.60
2022-08-17T08:45:06.704Z,2.95
2022-08-17T08:50:30.233Z,2.30
2022-08-17T08:55:52.163Z,2.22
2022-08-17T09:00:53.823Z,2.20
2022-08-17T09:06:38.583Z,2.58
2022-08-17T09:12:01.803Z,2.53
2022-08-17T09:17:14.429Z,2.67
2022-08-17T09:22:31.362Z,2.28
2022-08-17T09:27:34.994Z,2.17
2022-08-17T09:32:39.087Z,2.22
2022-08-17T09:37:51.214Z,2.00
2022-08-17T09:42:52.384Z,2.50
2022-08-17T09:48:24.938Z,2.88
2022-08-17T09:53:23.884Z,2.20
2022-08-17T09:58:33.436Z,1.80
2022-08-17T10:03:55.741Z,2.40
2022-08-17T10:09:08.159Z,1.95
2022-08-17T10:14:36.583Z,2.47
2022-08-17T10:19:39.560Z,2.00
2022-08-17T10:25:22.899Z,1.83
2022-08-17T10:30:28.284Z,1.55
2022-08-17T10:35:43.740Z,1.60
2022-08-17T10:40:52.058Z,2.00
2022-08-17T10:46:10.616Z,1.85
2022-08-17T10:51:48.020Z,1.92
2022-08-17T10:56:47.454Z,2.47
2022-08-17T11:02:01.230Z,2.17
2022-08-17T11:07:30.454Z,2.35
2022-08-17T11:12:37.584Z,2.40
2022-08-17T11:17:41.319Z,2.53
2022-08-17T11:23:06.088Z,2.60
2022-08-17T11:28:13.894Z,2.15
2022-08-17T11:33:32.968Z,2.80
2022-08-17T11:39:03.170Z,2.30
2022-08-17T11:44:25.238Z,1.75
2022-08-17T11:50:00.588Z,1.95
2022-08-17T11:55:17.703Z,1.70
2022-08-17T12:00:49.758Z,1.58
2022-08-17T12:05:46.178Z,1.58
2022-08-17T12:15:52.679Z,1.73
2022-08-17T12:21:12.123Z,1.85
2022-08-17T12:26:20.766Z,2.10
2022-08-17T12:31:25.776Z,2.10
2022-08-17T12:36:24.764Z,1.98
2022-08-17T12:41:43.281Z,1.67
2022-08-17T12:47:00.380Z,1.98
2022-08-17T12:52:25.581Z,1.70
2022-08-17T12:57:54.631Z,1.60
2022-08-17T13:02:55.044Z,1.70
2022-08-17T13:07:53.300Z,2.20
2022-08-17T13:12:51.331Z,2.40
2022-08-17T13:17:56.888Z,2.17
2022-08-17T13:22:57.350Z,2.60
2022-08-17T13:27:55.107Z,2.80
2022-08-17T13:32:53.792Z,1.98
2022-08-17T13:38:08.802Z,2.33
2022-08-17T13:43:05.448Z,2.20
2022-08-17T13:48:16.919Z,2.38
2022-08-17T13:53:19.049Z,1.95
2022-08-17T13:58:21.336Z,2.40
2022-08-17T14:03:18.730Z,2.28
2022-08-17T14:08:17.235Z,2.25
2022-08-17T14:13:15.124Z,2.60
2022-08-17T14:18:11.542Z,2.42
2022-08-17T14:28:06.956Z,2.20
2022-08-17T14:33:03.417Z,2.75
2022-08-17T14:38:00.370Z,2.10
2022-08-17T14:42:57.723Z,2.08
2022-08-17T14:47:54.089Z,2.60
2022-08-17T14:52:52.287Z,2.08
2022-08-17T15:02:53.803Z,2.05
2022-08-17T15:07:50.562Z,2.30
2022-08-17T15:12:47.417Z,2.22
2022-08-17T15:17:45.881Z,1.95
2022-08-17T15:22:43.715Z,2.20
2022-08-17T15:27:40.383Z,1.88
2022-08-17T15:32:39.320Z,2.15
2022-08-17T15:37:36.355Z,1.55
2022-08-17T15:42:33.911Z,1.77
2022-08-17T15:47:30.277Z,1.95
2022-08-17T15:52:29.701Z,1.70
2022-08-17T15:57:27.341Z,2.00
2022-08-17T16:03:13.738Z,2.08
2022-08-17T16:07:45.038Z,2.20
2022-08-17T16:12:45.498Z,2.22
2022-08-17T16:17:42.212Z,2.10
2022-08-17T16:22:42.089Z,1.95
2022-08-17T16:27:38.513Z,2.35
2022-08-17T16:42:33.349Z,2.35
2022-08-17T16:47:30.276Z,1.80
2022-08-17T16:52:32.489Z,1.83
2022-08-17T16:57:29.988Z,1.80
2022-08-17T17:02:32.643Z,2.00
2022-08-17T17:07:42.909Z,2.03
2022-08-17T17:13:03.852Z,2.15
2022-08-17T17:18:07.323Z,2.08
2022-08-17T17:28:56.046Z,1.90
2022-08-17T17:34:00.359Z,1.70
2022-08-17T17:39:04.951Z,2.05
2022-08-17T17:44:11.691Z,1.77
2022-08-17T17:49:11.256Z,1.92
2022-08-17T17:54:18.343Z,1.92
2022-08-17T17:59:43.779Z,3.05
2022-08-17T18:04:53.616Z,3.17
2022-08-17T18:10:19.626Z,5.03
2022-08-17T18:15:31.634Z,6.63
2022-08-17T18:20:36.449Z,6.60
2022-08-17T18:25:50.489Z,6.97
2022-08-17T18:31:07.827Z,7.38
2022-08-17T18:36:05.886Z,8.52
2022-08-17T18:41:19.283Z,9.55
2022-08-17T18:46:28.988Z,9.00
2022-08-17T18:51:42.618Z,9.05
2022-08-17T18:56:48.706Z,11.57
2022-08-17T19:01:59.900Z,10.93
2022-08-17T19:07:16.705Z,11.13
2022-08-17T19:12:27.295Z,13.45
2022-08-17T19:17:32.234Z,15.20
2022-08-17T19:22:43.848Z,15.85
2022-08-17T19:27:50.092Z,14.43
2022-08-17T19:32:46.777Z,15.35
2022-08-17T19:37:58.962Z,16.73
2022-08-17T19:43:01.628Z,17.30
2022-08-17T19:48:12.342Z,16.27
2022-08-17T19:53:41.966Z,18.95
2022-08-17T19:59:01.203Z,17.83
2022-08-17T20:04:12.854Z,20.65
2022-08-17T20:09:34.611Z,20.40
2022-08-17T20:14:39.618Z,18.48
2022-08-17T20:20:19.866Z,20.55
2022-08-17T20:25:30.106Z,19.92
2022-08-17T20:30:35.027Z,23.67
2022-08-17T20:35:37.615Z,23.15
2022-08-17T20:40:35.589Z,24.10
2022-08-17T20:45:51.512Z,23.13
2022-08-17T20:50:56.265Z,25.08
2022-08-17T20:55:55.495Z,20.65
2022-08-17T21:00:57.840Z,24.77
2022-08-17T21:06:12.568Z,26.63
2022-08-17T21:12:03.067Z,25.83
2022-08-17T21:17:07.858Z,27.98
2022-08-17T21:22:46.412Z,26.88
2022-08-17T21:28:10.664Z,27.05
2022-08-17T21:33:20.264Z,28.60
2022-08-17T21:38:20.563Z,31.38
2022-08-17T21:43:23.839Z,30.15
2022-08-17T21:48:23.960Z,30.63
2022-08-17T21:53:33.155Z,33.35
2022-08-17T21:58:40.249Z,32.72
2022-08-17T22:03:38.472Z,32.55
2022-08-17T22:08:34.997Z,31.80
2022-08-17T22:13:32.372Z,35.00
2022-08-17T22:18:28.950Z,34.17
2022-08-17T22:23:45.198Z,34.35
2022-08-17T22:28:52.768Z,33.65
2022-08-17T22:33:52.114Z,33.15
2022-08-17T22:38:50.066Z,27.30
2022-08-17T22:43:46.809Z,28.85
2022-08-17T22:48:59.267Z,33.63
2022-08-17T22:54:30.671Z,33.58
2022-08-17T22:59:50.226Z,31.75
2022-08-17T23:04:51.350Z,26.17
2022-08-17T23:09:47.706Z,24.42
2022-08-17T23:14:45.987Z,29.10
2022-08-17T23:19:42.546Z,36.80
2022-08-17T23:24:43.363Z,29.60
2022-08-17T23:29:42.049Z,28.73
2022-08-17T23:34:39.656Z,30.75
2022-08-17T23:44:33.743Z,30.83
2022-08-17T23:49:31.987Z,28.95
2022-08-17T23:54:43.491Z,25.80
2022-08-17T23:59:39.997Z,24.45
